Time;durP1;ratioP1;P1;durP2;ratioP2;P2;SDS_P1;SDS_P2;PMS_P1;PMS_P2;Temp;Humidity;BMP_temperature;BMP_pressure;BME280_temperature;BME280_humidity;BME280_pressure;Samples;Min_cycle;Max_cycle;Signal;HPM_P1;HPM_P2
2022/08/04 00:01:52;;;;;;;3.78;1.92;;;23.80;48.90;;;;;;5040257;28;20021;-48
2022/08/04 00:04:38;;;;;;;4.20;1.70;;;23.80;48.50;;;;;;5042621;28;20570;-50
2022/08/04 00:07:20;;;;;;;3.28;1.80;;;23.80;48.40;;;;;;5042883;28;20723;-50
2022/08/04 00:09:56;;;;;;;3.15;1.63;;;23.80;48.50;;;;;;5044462;28;20029;-48
2022/08/04 00:12:26;;;;;;;2.95;1.70;;;23.70;48.90;;;;;;5044236;28;20497;-50
2022/08/04 00:14:57;;;;;;;2.58;1.55;;;23.80;48.80;;;;;;5042595;28;20031;-49
2022/08/04 00:17:27;;;;;;;3.38;1.60;;;23.70;48.70;;;;;;5037584;28;20037;-49
2022/08/04 00:19:58;;;;;;;2.28;1.33;;;23.80;48.40;;;;;;5043207;28;20025;-48
2022/08/04 00:22:28;;;;;;;2.60;1.35;;;23.80;48.50;;;;;;5043270;28;20718;-49
2022/08/04 00:25:00;;;;;;;4.97;2.05;;;23.70;48.60;;;;;;5043422;28;20602;-49
2022/08/04 00:27:31;;;;;;;5.10;2.20;;;23.70;48.30;;;;;;5044024;28;20026;-50
2022/08/04 00:29:57;;;;;;;3.97;1.80;;;23.70;48.50;;;;;;5043831;28;20028;-48
2022/08/04 00:32:25;;;;;;;5.93;1.90;;;23.70;48.50;;;;;;5035419;28;20037;-48
2022/08/04 00:34:52;;;;;;;3.80;1.65;;;23.70;48.50;;;;;;5023529;28;20036;-49
2022/08/04 00:37:20;;;;;;;3.45;1.60;;;23.70;48.40;;;;;;5022983;28;20034;-49
2022/08/04 00:39:47;;;;;;;2.22;1.30;;;23.60;48.30;;;;;;5024033;28;20036;-49
2022/08/04 00:42:37;;;;;;;2.70;1.50;;;23.60;48.50;;;;;;5023708;28;20041;-49
2022/08/04 00:45:27;;;;;;;3.22;1.38;;;23.60;48.70;;;;;;5023742;28;20030;-48
2022/08/04 00:48:07;;;;;;;3.40;1.63;;;23.60;48.60;;;;;;5023379;28;20040;-48
2022/08/04 00:50:55;;;;;;;3.20;1.48;;;23.60;48.70;;;;;;5023375;28;20033;-49
2022/08/04 00:53:45;;;;;;;2.92;1.55;;;23.50;48.70;;;;;;5022960;28;20029;-49
2022/08/04 00:56:32;;;;;;;2.67;1.67;;;23.50;49.00;;;;;;5023764;28;20021;-48
2022/08/04 00:59:35;;;;;;;2.15;1.38;;;23.50;48.90;;;;;;5023680;28;20032;-49
2022/08/04 01:02:37;;;;;;;4.93;1.60;;;23.50;48.50;;;;;;5023518;28;20720;-48
2022/08/04 01:05:19;;;;;;;4.00;1.70;;;23.50;48.50;;;;;;5023506;28;20033;-48
2022/08/04 01:08:00;;;;;;;2.30;1.45;;;23.40;48.40;;;;;;5023629;28;20030;-49
2022/08/04 01:11:03;;;;;;;3.90;1.67;;;23.50;48.60;;;;;;5041582;28;20036;-50
2022/08/04 01:13:45;;;;;;;3.05;1.63;;;23.40;48.60;;;;;;5042441;28;20025;-49
2022/08/04 01:16:15;;;;;;;2.85;1.67;;;23.40;48.50;;;;;;5042103;28;20029;-50
2022/08/04 01:18:59;;;;;;;3.90;1.63;;;23.40;48.70;;;;;;5038184;28;20131;-47
2022/08/04 01:21:57;;;;;;;2.40;1.50;;;23.40;48.70;;;;;;5042645;28;20029;-50
2022/08/04 01:24:45;;;;;;;2.40;1.38;;;23.30;48.60;;;;;;5043393;28;20112;-48
2022/08/04 01:27:32;;;;;;;2.92;1.80;;;23.30;48.70;;;;;;5043095;28;20035;-48
2022/08/04 01:29:58;;;;;;;2.90;1.60;;;23.30;48.90;;;;;;5029784;28;20240;-49
2022/08/04 01:32:35;;;;;;;2.58;1.48;;;23.30;49.70;;;;;;5023343;28;20159;-49
2022/08/04 01:35:22;;;;;;;3.08;2.00;;;23.20;48.80;;;;;;5023414;28;20052;-50
2022/08/04 01:37:53;;;;;;;4.22;1.63;;;23.20;48.70;;;;;;5023103;28;20513;-49
2022/08/04 01:40:20;;;;;;;3.72;1.40;;;23.20;48.80;;;;;;5023670;28;20028;-50
2022/08/04 01:42:51;;;;;;;2.80;1.38;;;23.20;49.00;;;;;;5023441;28;20552;-49
2022/08/04 01:45:17;;;;;;;3.28;1.50;;;23.20;48.90;;;;;;5022816;28;20084;-49
2022/08/04 01:47:54;;;;;;;3.92;1.65;;;23.20;48.90;;;;;;5022273;28;20440;-48
2022/08/04 01:50:21;;;;;;;4.20;1.75;;;23.20;48.70;;;;;;5022342;28;20030;-47
2022/08/04 01:52:48;;;;;;;3.30;1.55;;;23.20;48.90;;;;;;5023032;28;20241;-47
2022/08/04 01:55:16;;;;;;;2.80;1.58;;;23.20;49.20;;;;;;5022629;28;20265;-48
2022/08/04 01:57:44;;;;;;;3.75;1.63;;;23.20;49.10;;;;;;5022891;28;20478;-47
2022/08/04 02:00:18;;;;;;;3.40;1.83;;;23.20;49.30;;;;;;5022586;28;20058;-48
2022/08/04 02:02:49;;;;;;;2.65;1.75;;;23.20;49.10;;;;;;5022472;28;20037;-47
2022/08/04 02:05:17;;;;;;;3.40;1.60;;;23.20;48.80;;;;;;5026727;28;20291;-47
2022/08/04 02:08:08;;;;;;;2.78;1.75;;;23.20;49.20;;;;;;5042439;28;20037;-47
2022/08/04 02:10:57;;;;;;;2.88;1.50;;;23.20;48.90;;;;;;5043163;28;20056;-48
2022/08/04 02:13:35;;;;;;;4.40;1.70;;;23.30;49.20;;;;;;5042330;28;20528;-48
2022/08/04 02:16:23;;;;;;;2.85;1.75;;;23.20;48.60;;;;;;5042796;28;20029;-48
2022/08/04 02:19:01;;;;;;;3.95;1.73;;;23.20;48.70;;;;;;5024095;28;20048;-48
2022/08/04 02:21:28;;;;;;;3.47;1.88;;;23.20;48.70;;;;;;5023248;28;20052;-48
2022/08/04 02:24:05;;;;;;;2.60;1.40;;;23.20;49.10;;;;;;5022638;28;20036;-49
2022/08/04 02:26:33;;;;;;;3.10;1.70;;;23.20;48.60;;;;;;5022775;28;20108;-47
2022/08/04 02:28:59;;;;;;;4.47;1.45;;;23.20;49.10;;;;;;5022900;28;20401;-48
2022/08/04 02:31:38;;;;;;;4.35;2.00;;;23.20;49.00;;;;;;5024290;28;20025;-48
2022/08/04 02:34:11;;;;;;;3.35;1.45;;;23.20;48.80;;;;;;5026310;28;20048;-48
2022/08/04 02:36:40;;;;;;;3.08;1.50;;;23.20;48.70;;;;;;5026071;28;20094;-49
2022/08/04 02:39:07;;;;;;;2.97;1.60;;;23.20;48.60;;;;;;5026548;28;20416;-46
2022/08/04 02:41:34;;;;;;;2.50;1.50;;;23.20;48.30;;;;;;5026159;28;20021;-47
2022/08/04 02:44:03;;;;;;;3.00;1.60;;;23.20;48.30;;;;;;5026541;28;20032;-47
2022/08/04 02:46:31;;;;;;;3.13;1.52;;;23.20;48.70;;;;;;5024604;28;20394;-48
2022/08/04 02:48:57;;;;;;;2.28;1.40;;;23.20;48.80;;;;;;5025682;28;20034;-47
2022/08/04 02:51:26;;;;;;;3.50;1.98;;;23.20;48.80;;;;;;5025456;28;20391;-48
2022/08/04 02:53:55;;;;;;;3.10;1.73;;;23.20;48.80;;;;;;5026469;28;20029;-48
2022/08/04 02:56:21;;;;;;;2.60;1.58;;;23.20;48.90;;;;;;5025945;28;20109;-48
2022/08/04 02:58:55;;;;;;;2.58;1.63;;;23.20;48.70;;;;;;5025644;28;20512;-47
2022/08/04 03:01:21;;;;;;;2.67;1.70;;;23.20;48.60;;;;;;5025963;28;20079;-48
2022/08/04 03:04:05;;;;;;;2.80;1.70;;;23.20;48.70;;;;;;5025418;28;20108;-47
2022/08/04 03:06:49;;;;;;;;;;;23.20;48.80;;;;;;5040662;28;20048;-49
2022/08/04 03:09:28;;;;;;;3.78;1.70;;;23.20;48.80;;;;;;5045719;28;19905;-48
2022/08/04 03:12:19;;;;;;;3.38;2.13;;;23.10;48.70;;;;;;5046312;28;20057;-48
2022/08/04 03:15:22;;;;;;;2.83;1.70;;;23.00;48.90;;;;;;5045524;28;20221;-48
2022/08/04 03:18:20;;;;;;;2.50;1.40;;;23.00;49.00;;;;;;5037319;28;20037;-47
2022/08/04 03:21:36;;;;;;;2.90;1.60;;;23.00;49.20;;;;;;5024432;28;20026;-47
2022/08/04 03:24:19;;;;;;;2.75;1.65;;;23.00;49.30;;;;;;5025509;28;20033;-48
2022/08/04 03:26:54;;;;;;;2.80;1.70;;;23.00;49.30;;;;;;5024640;28;20018;-48
2022/08/04 03:29:47;;;;;;;3.70;2.05;;;23.00;49.10;;;;;;5025820;28;20044;-48
2022/08/04 03:32:34;;;;;;;2.45;1.50;;;23.00;48.90;;;;;;5025456;28;20026;-48
2022/08/04 03:35:36;;;;;;;2.78;1.92;;;23.00;49.20;;;;;;5025379;28;20033;-48
2022/08/04 03:38:46;;;;;;;3.67;2.08;;;23.00;49.20;;;;;;5025086;28;20021;-48
2022/08/04 03:41:52;;;;;;;3.42;1.88;;;23.00;49.20;;;;;;5025751;28;20080;-47
2022/08/04 03:44:36;;;;;;;3.45;1.50;;;23.00;49.40;;;;;;5021721;28;20037;-49
2022/08/04 03:47:19;;;;;;;3.25;1.77;;;23.00;49.30;;;;;;5026357;28;20551;-48
2022/08/04 03:50:39;;;;;;;3.38;1.90;;;23.00;49.10;;;;;;5044849;28;20122;-48
2022/08/04 03:53:31;;;;;;;3.25;1.88;;;22.90;49.30;;;;;;5041825;28;20033;-47
2022/08/04 03:56:08;;;;;;;4.47;1.83;;;22.90;49.20;;;;;;4993462;28;20071;-48
2022/08/04 03:59:00;;;;;;;4.25;2.03;;;22.90;49.20;;;;;;5044241;28;20513;-48
2022/08/04 04:01:44;;;;;;;3.30;1.80;;;22.90;49.20;;;;;;5031403;28;20038;-48
2022/08/04 04:04:30;;;;;;;3.50;1.95;;;22.90;50.00;;;;;;5024675;28;21020;-47
2022/08/04 04:07:31;;;;;;;4.07;2.10;;;22.90;49.20;;;;;;5037623;28;20078;-48
2022/08/04 04:10:16;;;;;;;3.03;1.90;;;22.90;49.30;;;;;;5053772;28;20345;-48
2022/08/04 04:12:59;;;;;;;3.22;1.92;;;22.90;49.40;;;;;;5043285;28;20064;-47
2022/08/04 04:15:31;;;;;;;;;;;22.90;49.30;;;;;;5042975;28;20031;-48
2022/08/04 04:18:00;;;;;;;3.45;1.80;;;22.90;49.10;;;;;;5040763;28;19912;-48
2022/08/04 04:21:03;;;;;;;4.22;2.20;;;22.90;49.20;;;;;;5042680;28;20626;-48
2022/08/04 04:23:47;;;;;;;2.38;1.35;;;22.80;49.10;;;;;;5042536;28;20036;-47
2022/08/04 04:26:50;;;;;;;4.07;2.08;;;22.90;49.50;;;;;;5043231;28;20029;-47
2022/08/04 04:29:43;;;;;;;4.45;2.28;;;22.90;49.60;;;;;;5042091;28;20594;-49
2022/08/04 04:32:18;;;;;;;4.32;2.40;;;22.90;49.60;;;;;;5041521;28;20111;-47
2022/08/04 04:35:11;;;;;;;3.00;1.98;;;22.90;49.60;;;;;;5042393;28;20497;-47
2022/08/04 04:38:02;;;;;;;4.68;2.25;;;22.90;49.80;;;;;;5041359;28;20029;-48
2022/08/04 04:40:51;;;;;;;6.03;2.70;;;22.90;50.50;;;;;;5043363;28;20552;-47
2022/08/04 04:43:45;;;;;;;5.45;2.22;;;22.90;50.90;;;;;;5060341;28;20115;-47
2022/08/04 04:46:20;;;;;;;6.15;2.83;;;23.00;50.60;;;;;;5044947;28;20526;-47
2022/08/04 04:49:14;;;;;;;4.30;2.20;;;23.00;50.90;;;;;;5029466;28;20116;-47
2022/08/04 04:51:53;;;;;;;4.93;2.88;;;23.10;51.20;;;;;;5034037;28;20037;-48
2022/08/04 04:54:43;;;;;;;4.78;2.63;;;23.10;51.40;;;;;;5039831;28;20033;-47
2022/08/04 04:57:14;;;;;;;6.63;2.75;;;23.20;51.50;;;;;;5043112;28;20029;-48
2022/08/04 04:59:59;;;;;;;8.05;2.70;;;23.30;51.80;;;;;;5043577;28;20067;-47
2022/08/04 05:02:36;;;;;;;6.03;2.20;;;23.40;52.70;;;;;;5036797;28;20029;-47
2022/08/04 05:05:07;;;;;;;6.68;2.40;;;23.40;51.80;;;;;;5040158;28;20158;-48
2022/08/04 05:07:58;;;;;;;4.47;2.42;;;23.50;51.50;;;;;;5039918;28;20081;-49
2022/08/04 05:10:29;;;;;;;5.15;2.55;;;23.50;51.20;;;;;;5042862;28;20218;-48
2022/08/04 05:13:32;;;;;;;4.25;2.45;;;23.60;51.20;;;;;;5042448;28;20092;-48
2022/08/04 05:16:21;;;;;;;3.85;2.13;;;23.60;51.00;;;;;;5040603;28;20098;-48
2022/08/04 05:19:21;;;;;;;3.40;2.00;;;23.70;51.00;;;;;;5026585;28;20028;-48
2022/08/04 05:21:58;;;;;;;4.57;1.80;;;23.70;50.70;;;;;;5056132;28;20026;-48
2022/08/04 05:24:26;;;;;;;4.93;2.25;;;23.80;50.50;;;;;;5041231;28;20029;-48
2022/08/04 05:26:55;;;;;;;5.40;2.25;;;23.80;50.40;;;;;;5042176;28;20029;-48
2022/08/04 05:29:40;;;;;;;4.35;2.20;;;23.80;50.30;;;;;;5039196;28;20045;-47
2022/08/04 05:32:11;;;;;;;3.90;2.20;;;23.90;50.20;;;;;;5040852;28;20033;-47
2022/08/04 05:34:51;;;;;;;4.25;2.28;;;23.90;50.80;;;;;;5040997;28;20029;-47
2022/08/04 05:37:20;;;;;;;4.03;2.03;;;24.00;50.40;;;;;;5040673;28;20033;-47
2022/08/04 05:39:57;;;;;;;3.88;2.38;;;24.00;50.30;;;;;;5042250;28;20071;-48
2022/08/04 05:42:24;;;;;;;2.83;1.77;;;24.10;50.20;;;;;;5041758;28;20020;-48
2022/08/04 05:44:50;;;;;;;3.60;2.33;;;24.10;50.00;;;;;;5041202;28;20036;-47
2022/08/04 05:47:17;;;;;;;4.72;2.80;;;24.10;49.90;;;;;;5040644;28;20752;-47
2022/08/04 05:49:44;;;;;;;4.75;2.45;;;24.20;49.80;;;;;;5041690;28;20394;-49
2022/08/04 05:52:11;;;;;;;4.95;2.47;;;24.20;49.60;;;;;;5040021;28;20591;-49
2022/08/04 05:54:38;;;;;;;4.72;2.63;;;24.20;50.50;;;;;;5041978;28;20021;-47
2022/08/04 05:57:05;;;;;;;4.38;2.63;;;24.30;50.80;;;;;;5042014;28;20107;-48
2022/08/04 05:59:36;;;;;;;6.20;2.75;;;24.30;51.10;;;;;;5041198;28;20021;-47
2022/08/04 06:02:03;;;;;;;4.03;2.53;;;24.30;50.90;;;;;;5042061;28;20017;-47
2022/08/04 06:04:38;;;;;;;4.70;2.90;;;24.40;50.70;;;;;;5039518;28;20479;-50
2022/08/04 06:07:05;;;;;;;5.03;2.42;;;24.40;50.70;;;;;;5043037;28;20118;-49
2022/08/04 06:09:31;;;;;;;4.30;2.53;;;24.40;50.70;;;;;;5046882;28;20025;-49
2022/08/04 06:12:01;;;;;;;5.53;2.92;;;24.50;50.70;;;;;;5046697;28;20668;-47
2022/08/04 06:14:32;;;;;;;3.63;2.60;;;24.50;50.70;;;;;;5047042;28;20159;-49
2022/08/04 06:16:59;;;;;;;3.63;2.60;;;24.50;50.70;;;;;;5039888;28;20037;-46
2022/08/04 06:19:27;;;;;;;5.57;2.92;;;24.60;50.40;;;;;;5026424;28;20155;-47
2022/08/04 06:21:57;;;;;;;3.88;2.78;;;24.60;50.40;;;;;;5028270;28;20025;-49
2022/08/04 06:24:26;;;;;;;3.95;2.75;;;24.70;50.90;;;;;;5046954;28;20036;-48
2022/08/04 06:26:53;;;;;;;4.55;2.92;;;24.70;50.60;;;;;;5046043;28;20036;-49
2022/08/04 06:29:29;;;;;;;4.75;2.55;;;24.70;50.00;;;;;;5046617;28;20029;-49
2022/08/04 06:31:57;;;;;;;5.78;2.88;;;24.70;49.50;;;;;;5043585;28;20025;-49
2022/08/04 06:34:25;;;;;;;5.05;2.70;;;24.80;49.60;;;;;;5043770;28;20600;-49
2022/08/04 06:36:52;;;;;;;3.80;2.65;;;24.80;49.70;;;;;;5042876;28;20056;-47
2022/08/04 06:39:20;;;;;;;4.32;2.78;;;24.80;49.60;;;;;;5045422;28;20055;-48
2022/08/04 06:41:47;;;;;;;5.40;2.75;;;24.90;49.50;;;;;;5044382;28;20025;-49
2022/08/04 06:44:14;;;;;;;4.72;2.85;;;24.90;50.10;;;;;;5045338;28;20035;-49
2022/08/04 06:46:42;;;;;;;4.22;2.90;;;24.90;50.10;;;;;;5043912;28;20108;-48
2022/08/04 06:49:08;;;;;;;4.55;2.60;;;24.90;49.70;;;;;;5030016;28;20025;-48
2022/08/04 06:51:36;;;;;;;3.78;2.55;;;25.00;49.50;;;;;;5026113;28;20032;-48
2022/08/04 06:54:02;;;;;;;4.72;2.67;;;25.00;49.50;;;;;;5025326;28;20111;-48
2022/08/04 06:56:29;;;;;;;6.72;2.85;;;25.00;49.40;;;;;;5025604;28;20041;-48
2022/08/04 06:58:58;;;;;;;4.53;2.40;;;25.00;49.30;;;;;;5024587;28;20029;-48
2022/08/04 07:01:25;;;;;;;4.80;2.70;;;25.00;49.20;;;;;;5025784;28;20096;-48
2022/08/04 07:03:52;;;;;;;3.90;2.70;;;25.10;49.20;;;;;;5025314;28;20481;-48
2022/08/04 07:06:19;;;;;;;4.78;2.55;;;25.10;49.00;;;;;;5024944;28;20707;-48
2022/08/04 07:08:45;;;;;;;4.90;2.65;;;25.10;49.00;;;;;;5025859;28;20034;-49
2022/08/04 07:11:12;;;;;;;4.38;2.55;;;25.10;49.00;;;;;;5025863;28;20223;-48
2022/08/04 07:13:39;;;;;;;4.53;2.20;;;25.10;49.00;;;;;;5025783;28;20141;-48
2022/08/04 07:16:06;;;;;;;4.63;2.42;;;25.10;49.00;;;;;;5025042;28;20685;-49
2022/08/04 07:18:31;;;;;;;5.45;2.22;;;25.10;49.00;;;;;;5024370;28;20041;-48
2022/08/04 07:20:58;;;;;;;3.67;2.45;;;25.20;49.70;;;;;;5025358;28;20113;-49
2022/08/04 07:23:25;;;;;;;3.83;2.28;;;25.20;48.90;;;;;;5024964;28;20030;-49
2022/08/04 07:25:52;;;;;;;3.00;2.20;;;25.20;48.90;;;;;;5025116;28;20028;-47
2022/08/04 07:28:19;;;;;;;3.10;2.15;;;25.20;48.90;;;;;;5025340;28;20025;-52
2022/08/04 07:30:47;;;;;;;4.00;2.30;;;25.20;48.80;;;;;;5041106;28;20027;-47
2022/08/04 07:33:16;;;;;;;5.22;2.67;;;25.20;48.90;;;;;;5025452;28;20370;-49
2022/08/04 07:35:44;;;;;;;5.22;2.55;;;25.20;48.80;;;;;;5024613;28;20038;-49
2022/08/04 07:38:10;;;;;;;3.72;2.33;;;25.20;48.80;;;;;;5025610;28;20036;-49
2022/08/04 07:40:37;;;;;;;4.00;2.30;;;25.20;48.80;;;;;;5024650;28;20086;-47
2022/08/04 07:43:04;;;;;;;4.72;2.42;;;25.20;48.80;;;;;;5030245;28;20028;-49
2022/08/04 07:45:30;;;;;;;4.13;2.38;;;25.30;48.80;;;;;;5044595;28;20025;-48
2022/08/04 07:47:56;;;;;;;4.40;2.17;;;25.30;48.70;;;;;;5040909;28;20602;-48
2022/08/04 07:50:23;;;;;;;3.40;2.17;;;25.30;48.80;;;;;;5025087;28;20037;-48
2022/08/04 07:52:49;;;;;;;3.50;2.13;;;25.30;48.80;;;;;;5025376;28;20045;-49
2022/08/04 07:55:17;;;;;;;3.50;1.98;;;25.30;48.80;;;;;;5024476;28;20025;-48
2022/08/04 07:57:42;;;;;;;5.15;2.25;;;25.30;48.80;;;;;;5024906;28;20029;-48
2022/08/04 08:00:10;;;;;;;3.40;1.88;;;25.30;48.80;;;;;;5024672;28;20052;-47
2022/08/04 08:02:37;;;;;;;3.97;2.38;;;25.30;48.70;;;;;;5024426;28;20458;-48
2022/08/04 08:05:04;;;;;;;3.85;2.03;;;25.40;49.10;;;;;;5024308;28;20025;-49
2022/08/04 08:07:29;;;;;;;3.90;1.95;;;25.30;48.70;;;;;;5024387;28;20394;-49
2022/08/04 08:09:55;;;;;;;3.20;2.03;;;25.30;48.70;;;;;;5024245;28;20025;-49
2022/08/04 08:12:21;;;;;;;3.75;2.58;;;25.40;48.60;;;;;;5024349;28;20037;-50
2022/08/04 08:14:47;;;;;;;3.60;2.08;;;25.40;48.70;;;;;;5042540;28;20359;-47
2022/08/04 08:17:13;;;;;;;3.60;2.30;;;25.40;48.70;;;;;;5044358;28;20025;-48
2022/08/04 08:19:39;;;;;;;3.55;2.35;;;25.40;48.70;;;;;;5026534;28;20514;-47
2022/08/04 08:22:05;;;;;;;3.40;2.25;;;25.40;48.70;;;;;;5024739;28;20447;-49
2022/08/04 08:24:34;;;;;;;5.00;2.47;;;25.40;48.70;;;;;;5023940;28;20036;-48
2022/08/04 08:27:03;;;;;;;3.65;2.25;;;25.40;48.70;;;;;;5024198;28;20018;-48
2022/08/04 08:29:29;;;;;;;3.85;2.38;;;25.40;48.70;;;;;;5024274;28;20090;-48
2022/08/04 08:31:56;;;;;;;3.97;2.17;;;25.40;48.60;;;;;;5024661;28;20029;-49
2022/08/04 08:34:22;;;;;;;4.18;2.30;;;25.40;48.70;;;;;;5024014;28;20037;-48
2022/08/04 08:37:17;;;;;;;3.65;2.15;;;25.40;48.70;;;;;;5023738;28;20040;-49
2022/08/04 08:39:58;;;;;;;3.60;2.00;;;25.40;48.70;;;;;;5023695;28;20609;-48
2022/08/04 08:42:29;;;;;;;3.13;1.92;;;25.50;48.70;;;;;;5024059;28;20053;-48
2022/08/04 08:45:20;;;;;;;3.50;1.83;;;25.40;48.70;;;;;;5023507;28;20417;-47
2022/08/04 08:47:58;;;;;;;3.78;2.22;;;25.50;48.70;;;;;;5022366;28;20044;-48
2022/08/04 08:50:27;;;;;;;4.55;2.22;;;25.50;48.60;;;;;;5024168;28;20018;-47
2022/08/04 08:53:14;;;;;;;3.97;2.35;;;25.50;48.70;;;;;;5023798;28;20355;-48
2022/08/04 08:55:51;;;;;;;4.05;2.45;;;25.50;48.70;;;;;;5023257;28;20030;-49
2022/08/04 08:58:47;;;;;;;3.47;1.90;;;25.50;48.70;;;;;;5024176;28;20029;-50
2022/08/04 09:01:34;;;;;;;3.65;1.95;;;25.50;48.70;;;;;;5023852;28;20389;-48
2022/08/04 09:04:19;;;;;;;3.03;1.73;;;25.50;48.70;;;;;;5023871;28;20022;-48
2022/08/04 09:07:20;;;;;;;3.30;1.73;;;25.50;48.70;;;;;;5023290;28;20029;-49
2022/08/04 09:10:02;;;;;;;4.70;1.90;;;25.50;48.70;;;;;;5023384;28;20060;-50
2022/08/04 09:12:34;;;;;;;3.42;1.90;;;25.50;48.70;;;;;;5023568;28;20037;-47
2022/08/04 09:15:19;;;;;;;2.85;1.70;;;25.50;48.70;;;;;;5036567;28;20087;-48
2022/08/04 09:17:50;;;;;;;3.50;2.10;;;25.50;48.70;;;;;;5022986;28;20044;-50
2022/08/04 09:20:36;;;;;;;3.47;2.00;;;25.60;48.70;;;;;;5030552;28;20525;-49
2022/08/04 09:23:33;;;;;;;2.85;1.73;;;25.60;48.70;;;;;;5042852;28;20061;-48
2022/08/04 09:26:17;;;;;;;2.95;1.65;;;25.60;48.70;;;;;;5042753;28;20036;-50
2022/08/04 09:28:53;;;;;;;3.65;2.00;;;25.50;48.60;;;;;;5042817;28;20032;-49
2022/08/04 09:31:27;;;;;;;3.47;1.80;;;25.60;48.70;;;;;;5042087;28;20033;-48
2022/08/04 09:34:13;;;;;;;3.92;2.05;;;25.60;48.70;;;;;;5028847;28;20037;-50
2022/08/04 09:36:50;;;;;;;3.53;2.03;;;25.60;48.70;;;;;;5023344;28;20506;-48
2022/08/04 09:40:08;;;;;;;2.95;1.70;;;25.60;48.70;;;;;;5023300;28;20514;-48
2022/08/04 09:42:40;;;;;;;3.13;1.90;;;25.60;48.70;;;;;;5019974;28;20644;-48
2022/08/04 09:45:22;;;;;;;2.70;1.55;;;25.60;48.60;;;;;;5023218;28;20017;-47
2022/08/04 09:48:04;;;;;;;3.22;1.95;;;25.60;48.60;;;;;;5023277;28;20037;-49
2022/08/04 09:50:42;;;;;;;3.92;1.77;;;25.60;48.60;;;;;;5022884;28;20428;-47
2022/08/04 09:53:36;;;;;;;3.22;2.05;;;25.60;48.70;;;;;;5022360;28;20022;-49
2022/08/04 09:56:28;;;;;;;4.13;2.13;;;25.70;48.70;;;;;;5021896;28;20022;-48
2022/08/04 09:59:00;;;;;;;2.72;1.60;;;25.70;48.70;;;;;;5013499;28;20046;-48
2022/08/04 10:01:29;;;;;;;3.10;1.83;;;25.70;48.70;;;;;;5021553;28;20062;-48
2022/08/04 10:03:59;;;;;;;3.80;1.75;;;25.60;48.60;;;;;;5022593;28;20032;-49
2022/08/04 10:07:04;;;;;;;4.10;2.00;;;25.70;48.70;;;;;;5023073;28;20041;-48
2022/08/04 10:09:38;;;;;;;2.75;1.65;;;25.70;48.70;;;;;;5023011;28;20205;-49
2022/08/04 10:12:42;;;;;;;2.92;1.75;;;25.70;48.70;;;;;;5023437;28;20036;-48
2022/08/04 10:15:19;;;;;;;3.88;1.73;;;25.70;48.70;;;;;;5023110;28;20565;-49
2022/08/04 10:18:02;;;;;;;2.72;1.60;;;25.70;48.70;;;;;;5022309;28;20044;-49
2022/08/04 10:20:50;;;;;;;3.10;1.60;;;25.70;48.60;;;;;;5023260;28;20080;-49
2022/08/04 10:23:21;;;;;;;3.00;1.60;;;25.70;48.70;;;;;;5022937;28;20048;-48
2022/08/04 10:26:10;;;;;;;2.80;1.58;;;25.70;48.60;;;;;;5022640;28;20109;-49
2022/08/04 10:28:45;;;;;;;3.08;1.77;;;25.70;48.60;;;;;;5033269;28;20589;-49
2022/08/04 10:31:16;;;;;;;3.42;1.85;;;25.80;48.60;;;;;;5042707;28;20025;-49
2022/08/04 10:33:50;;;;;;;2.88;1.40;;;25.80;48.60;;;;;;5037791;28;20021;-49
2022/08/04 10:36:21;;;;;;;2.67;1.67;;;25.80;48.50;;;;;;5042298;28;20033;-48
2022/08/04 10:39:15;;;;;;;2.80;1.52;;;25.80;48.60;;;;;;5042973;28;20033;-50
2022/08/04 10:41:54;;;;;;;3.00;1.70;;;25.80;48.50;;;;;;5042354;28;20045;-47
2022/08/04 10:44:39;;;;;;;2.92;1.70;;;25.80;48.60;;;;;;5042814;28;20027;-49
2022/08/04 10:47:14;;;;;;;3.10;1.67;;;25.80;48.60;;;;;;5042159;28;20193;-47
2022/08/04 10:49:53;;;;;;;2.72;1.60;;;25.80;48.60;;;;;;5026781;28;20112;-48
2022/08/04 10:52:43;;;;;;;3.63;1.70;;;25.80;48.50;;;;;;5022632;28;20041;-49
2022/08/04 10:55:22;;;;;;;3.42;1.70;;;25.80;49.20;;;;;;5025726;28;20033;-48
2022/08/04 10:58:05;;;;;;;2.97;1.58;;;25.80;48.50;;;;;;5026037;28;20041;-48
2022/08/04 11:00:37;;;;;;;2.55;1.52;;;25.80;48.50;;;;;;5026388;28;20271;-46
2022/08/04 11:03:04;;;;;;;2.47;1.40;;;25.80;48.50;;;;;;5025731;28;20049;-46
2022/08/04 11:05:42;;;;;;;2.67;1.67;;;25.80;48.50;;;;;;5025630;28;20025;-47
2022/08/04 11:08:15;;;;;;;2.80;1.52;;;25.80;48.50;;;;;;5026049;28;20516;-47
2022/08/04 11:10:53;;;;;;;2.85;1.58;;;25.90;48.50;;;;;;5026395;28;20035;-48
2022/08/04 11:13:23;;;;;;;2.53;1.40;;;25.90;48.50;;;;;;5025777;28;20316;-47
2022/08/04 11:15:54;;;;;;;3.00;1.60;;;25.90;48.50;;;;;;5025497;28;20442;-48
2022/08/04 11:18:51;;;;;;;2.95;1.60;;;25.90;48.40;;;;;;5025246;28;20892;-47
2022/08/04 11:21:23;;;;;;;3.20;1.67;;;25.90;48.50;;;;;;5025900;28;20040;-47
2022/08/04 11:24:17;;;;;;;2.65;1.60;;;25.90;48.50;;;;;;5025567;28;20085;-47
2022/08/04 11:26:48;;;;;;;3.08;1.77;;;25.90;48.50;;;;;;5025119;28;20382;-47
2022/08/04 11:29:17;;;;;;;2.72;1.70;;;25.90;48.40;;;;;;5025480;28;20167;-47
2022/08/04 11:31:47;;;;;;;2.75;1.63;;;25.90;48.50;;;;;;5025803;28;20029;-48
2022/08/04 11:34:24;;;;;;;2.47;1.33;;;25.90;48.40;;;;;;5025503;28;20525;-47
2022/08/04 11:37:01;;;;;;;3.40;1.52;;;25.90;48.50;;;;;;5035288;28;20225;-47
2022/08/04 11:39:42;;;;;;;2.85;1.65;;;26.00;48.90;;;;;;5045403;28;20055;-47
2022/08/04 11:42:28;;;;;;;2.50;1.33;;;26.00;48.80;;;;;;5045437;28;20025;-48
2022/08/04 11:44:59;;;;;;;2.70;1.60;;;26.00;48.80;;;;;;5044870;28;20025;-48
2022/08/04 11:47:31;;;;;;;2.83;1.40;;;26.00;48.80;;;;;;5044951;28;20060;-47
2022/08/04 11:50:09;;;;;;;2.58;1.25;;;26.00;48.90;;;;;;5028189;28;20116;-48
2022/08/04 11:52:39;;;;;;;2.78;1.35;;;26.00;48.90;;;;;;5024736;28;20052;-48
2022/08/04 11:55:10;;;;;;;2.45;1.48;;;26.00;48.90;;;;;;5025025;28;20029;-47
2022/08/04 11:57:36;;;;;;;2.92;1.50;;;26.10;48.90;;;;;;5023139;28;20029;-47
2022/08/04 12:00:08;;;;;;;2.83;1.35;;;26.00;49.00;;;;;;5025402;28;20033;-46
2022/08/04 12:02:58;;;;;;;2.85;1.25;;;26.10;49.00;;;;;;5024535;28;20032;-48
2022/08/04 12:05:31;;;;;;;2.85;1.40;;;26.10;49.00;;;;;;5024337;28;20119;-47
2022/08/04 12:08:22;;;;;;;2.70;1.40;;;26.10;49.00;;;;;;5024993;28;20026;-48
2022/08/04 12:11:06;;;;;;;2.60;1.42;;;26.10;49.00;;;;;;5025016;28;20552;-47
2022/08/04 12:13:43;;;;;;;2.22;1.40;;;26.20;49.00;;;;;;5023852;28;20100;-47
2022/08/04 12:16:34;;;;;;;2.15;1.20;;;26.20;49.00;;;;;;5024820;28;20087;-46
2022/08/04 12:19:04;;;;;;;2.50;1.33;;;26.20;48.90;;;;;;5032469;28;20313;-48
2022/08/04 12:21:48;;;;;;;2.20;1.40;;;26.20;48.90;;;;;;5044198;28;20021;-47
2022/08/04 12:24:20;;;;;;;1.65;1.05;;;26.30;48.90;;;;;;5041790;28;20065;-48
2022/08/04 12:26:55;;;;;;;2.13;1.33;;;26.30;48.80;;;;;;5043117;28;20025;-48
2022/08/04 12:29:23;;;;;;;1.90;1.27;;;26.30;48.80;;;;;;5043683;28;20270;-47
2022/08/04 12:32:00;;;;;;;2.28;1.33;;;26.30;48.80;;;;;;5044594;28;20038;-47
2022/08/04 12:34:37;;;;;;;2.97;1.25;;;26.40;48.80;;;;;;5032057;28;20037;-47
2022/08/04 12:37:12;;;;;;;2.30;1.33;;;26.40;48.70;;;;;;5022972;28;20030;-48
2022/08/04 12:39:41;;;;;;;2.70;1.23;;;26.40;48.60;;;;;;5023699;28;20115;-48
2022/08/04 12:42:16;;;;;;;2.40;1.30;;;26.40;48.60;;;;;;5024073;28;20036;-48
2022/08/04 12:44:48;;;;;;;2.33;1.30;;;26.40;48.60;;;;;;5026344;28;20055;-47
2022/08/04 12:47:16;;;;;;;2.23;1.40;;;26.50;48.50;;;;;;5043845;28;20226;-49
2022/08/04 12:49:45;;;;;;;2.45;1.30;;;26.50;48.50;;;;;;5029871;28;20040;-48
2022/08/04 12:52:13;;;;;;;2.75;1.30;;;26.50;48.50;;;;;;5038200;28;20041;-48
2022/08/04 12:54:42;;;;;;;1.92;1.05;;;26.50;48.40;;;;;;5044228;28;20021;-48
2022/08/04 12:57:10;;;;;;;2.53;1.25;;;26.50;48.40;;;;;;5041957;28;20021;-46
2022/08/04 12:59:53;;;;;;;2.60;1.23;;;26.60;48.30;;;;;;5043776;28;20040;-47
2022/08/04 13:02:22;;;;;;;2.40;1.23;;;26.60;48.30;;;;;;5043490;28;20037;-47
2022/08/04 13:04:49;;;;;;;2.33;1.38;;;26.60;48.30;;;;;;5029001;28;20125;-48
2022/08/04 13:07:19;;;;;;;2.28;1.17;;;26.60;48.10;;;;;;5023639;28;20055;-47
2022/08/04 13:09:46;;;;;;;2.60;1.30;;;26.60;48.10;;;;;;5023944;28;20111;-47
2022/08/04 13:12:15;;;;;;;2.60;1.48;;;26.70;48.00;;;;;;5023975;28;20029;-48
2022/08/04 13:14:44;;;;;;;2.25;1.10;;;26.70;48.00;;;;;;5022090;28;20300;-48
2022/08/04 13:17:10;;;;;;;2.75;1.40;;;26.80;48.00;;;;;;5023520;28;20045;-48
2022/08/04 13:19:37;;;;;;;2.35;1.27;;;26.80;47.90;;;;;;5023216;28;20029;-46
2022/08/04 13:22:04;;;;;;;3.10;1.40;;;26.80;47.90;;;;;;5022261;28;20025;-47
2022/08/04 13:24:32;;;;;;;1.80;1.10;;;26.80;47.80;;;;;;5023063;28;20048;-47
2022/08/04 13:27:07;;;;;;;2.08;1.23;;;26.80;47.80;;;;;;5023143;28;20030;-47
2022/08/04 13:29:40;;;;;;;2.05;1.00;;;26.80;47.80;;;;;;5022741;28;20040;-47
2022/08/04 13:32:07;;;;;;;;;;;26.90;47.80;;;;;;5038818;28;20100;-48
2022/08/04 13:34:34;;;;;;;1.77;1.00;;;26.90;47.80;;;;;;5021701;28;19940;-47
2022/08/04 13:37:01;;;;;;;2.75;1.20;;;26.90;47.70;;;;;;5022379;28;20048;-48